Time,TemperatureF,DewpointF,PressureIn,WindDirection,WindDirectionDegrees,WindSpeedMPH,WindSpeedGustMPH,Humidity,HourlyPrecipIn,Conditions,Clouds,dailyrainin,SolarRadiationWatts/m^2,SoftwareType,DateUTC
2013-05-30 00:04:00,55.9,49.8,29.91,NNW,336,5.8,5.8,80,0.00,RA,,0.00,0.0,WeatherDisplay:10.37,2013-05-29 23:04:00,
2013-05-30 00:10:00,56.0,49.2,29.91,NNW,332,5.8,5.8,78,0.00,RA,,0.00,0.0,WeatherDisplay:10.37,2013-05-29 23:10:00,
2013-05-30 00:15:00,56.2,49.1,29.91,NW,325,5.8,5.8,77,0.00,CLR,,0.00,0.0,WeatherDisplay:10.37,2013-05-29 23:15:00,
2013-05-30 00:20:00,56.3,48.5,29.91,NNW,339,3.5,3.5,75,0.00,CLR,,0.00,0.0,WeatherDisplay:10.37,2013-05-29 23:20:00,
2013-05-30 00:25:00,56.5,48.3,29.91,NNW,344,6.9,6.9,74,0.00,CLR,,0.00,0.0,WeatherDisplay:10.37,2013-05-29 23:25:00,
2013-05-30 00:30:00,56.5,48.3,29.91,NNW,336,2.0,7.0,74,0.00,CLR,,0.00,0.0,WeatherDisplay:10.37,2013-05-29 23:30:00,
2013-05-30 00:35:00,56.6,48.0,29.91,NW,325,3.5,3.5,73,0.00,CLR,,0.00,0.0,WeatherDisplay:10.37,2013-05-29 23:35:00,
2013-05-30 00:40:00,56.6,48.0,29.91,NNW,332,5.8,5.8,73,0.00,CLR,,0.00,0.0,WeatherDisplay:10.37,2013-05-29 23:40:00,
2013-05-30 00:45:00,56.7,47.8,29.91,NW,319,4.6,4.6,72,0.00,CLR,,0.00,0.0,WeatherDisplay:10.37,2013-05-29 23:45:00,
2013-05-30 00:51:00,56.7,48.1,29.91,NW,323,0.0,0.0,73,0.00,CLR,,0.00,0.0,WeatherDisplay:10.37,2013-05-29 23:51:00,
2013-05-30 00:56:00,56.6,48.0,29.91,NW,326,2.3,2.3,73,0.00,CLR,,0.00,0.0,WeatherDisplay:10.37,2013-05-29 23:56:00,
2013-05-30 01:01:00,56.5,47.9,29.91,NNW,336,3.5,3.5,73,0.00,CLR,,0.00,0.0,WeatherDisplay:10.37,2013-05-30 00:01:00,
2013-05-30 01:06:00,56.5,47.9,29.91,NNW,335,3.5,3.5,73,0.00,CLR,,0.00,0.0,WeatherDisplay:10.37,2013-05-30 00:06:00,
2013-05-30 01:11:00,56.3,47.8,29.91,NNW,330,3.5,3.5,73,0.00,CLR,,0.00,0.0,WeatherDisplay:10.37,2013-05-30 00:11:00,
2013-05-30 01:17:00,56.3,47.4,29.92,NW,326,3.5,3.5,72,0.00,CLR,,0.00,0.0,WeatherDisplay:10.37,2013-05-30 00:17:00,
2013-05-30 01:22:00,56.2,47.3,29.91,NNW,330,5.0,5.0,72,0.00,CLR,,0.00,0.0,WeatherDisplay:10.37,2013-05-30 00:22:00,
2013-05-30 01:27:00,56.2,47.3,29.91,NNW,330,3.5,3.5,72,0.00,CLR,,0.00,0.0,WeatherDisplay:10.37,2013-05-30 00:27:00,
2013-05-30 01:32:00,56.2,47.3,29.91,NNW,337,4.6,4.6,72,0.00,CLR,,0.00,0.0,WeatherDisplay:10.37,2013-05-30 00:32:00,
2013-05-30 01:38:00,56.0,47.1,29.91,NNW,336,2.3,2.3,72,0.00,CLR,,0.00,0.0,WeatherDisplay:10.37,2013-05-30 00:38:00,
2013-05-30 01:43:00,56.0,47.1,29.91,NNW,346,3.5,3.5,72,0.00,CLR,,0.00,0.0,WeatherDisplay:10.37,2013-05-30 00:43:00,
2013-05-30 01:48:00,56.0,47.1,29.91,NNW,344,1.2,1.2,72,0.00,CLR,,0.00,0.0,WeatherDisplay:10.37,2013-05-30 00:48:00,
2013-05-30 01:53:00,56.0,47.1,29.91,NNW,332,3.5,3.5,72,0.00,CLR,,0.00,0.0,WeatherDisplay:10.37,2013-05-30 00:53:00,
2013-05-30 01:59:00,56.0,47.1,29.91,NNW,336,3.5,3.5,72,0.00,CLR,,0.00,0.0,WeatherDisplay:10.37,2013-05-30 00:59:00,
2013-05-30 02:04:00,56.0,47.1,29.91,NNW,329,0.0,0.0,72,0.00,CLR,,0.00,0.0,WeatherDisplay:10.37,2013-05-30 01:04:00,
2013-05-30 02:09:00,56.0,47.1,29.91,NNW,329,0.0,0.0,72,0.00,CLR,,0.00,0.0,WeatherDisplay:10.37,2013-05-30 01:09:00,
2013-05-30 02:14:00,56.0,47.1,29.91,North,350,1.0,0.0,72,0.00,CLR,,0.00,0.0,WeatherDisplay:10.37,2013-05-30 01:14:00,
2013-05-30 02:19:00,56.0,47.5,29.91,NW,320,0.0,0.0,73,0.00,CLR,,0.00,0.0,WeatherDisplay:10.37,2013-05-30 01:19:00,
2013-05-30 02:24:00,55.9,47.7,29.91,NNW,328,0.0,0.0,74,0.00,CLR,,0.00,0.0,WeatherDisplay:10.37,2013-05-30 01:24:00,
2013-05-30 02:29:00,55.7,47.5,29.91,NNW,329,0.0,0.0,74,0.00,CLR,,0.00,0.0,WeatherDisplay:10.37,2013-05-30 01:29:00,
2013-05-30 02:34:00,55.6,47.4,29.91,NNW,335,0.0,0.0,74,0.00,CLR,,0.00,0.0,WeatherDisplay:10.37,2013-05-30 01:34:00,
2013-05-30 02:39:00,55.4,46.9,29.91,NW,326,1.2,0.0,73,0.00,CLR,,0.00,0.0,WeatherDisplay:10.37,2013-05-30 01:39:00,
2013-05-30 02:45:00,55.6,47.1,29.91,NNW,328,3.0,3.0,73,0.00,CLR,,0.00,0.0,WeatherDisplay:10.37,2013-05-30 01:45:00,
2013-05-30 02:50:00,55.7,46.8,29.91,NNW,340,3.0,3.0,72,0.00,CLR,,0.00,0.0,WeatherDisplay:10.37,2013-05-30 01:50:00,
2013-05-30 02:55:00,55.9,47.0,29.91,SW,224,3.5,3.5,72,0.00,CLR,,0.00,0.0,WeatherDisplay:10.37,2013-05-30 01:55:00,
2013-05-30 03:00:00,55.9,47.0,29.91,SW,224,0.0,0.0,72,0.00,CLR,,0.00,0.0,WeatherDisplay:10.37,2013-05-30 02:00:00,
2013-05-30 03:05:00,55.9,47.4,29.91,SW,227,0.0,0.0,73,0.00,CLR,,0.00,0.0,WeatherDisplay:10.37,2013-05-30 02:05:00,
2013-05-30 03:10:00,55.7,47.5,29.91,SW,229,0.0,0.0,74,0.00,CLR,,0.00,0.0,WeatherDisplay:10.37,2013-05-30 02:10:00,
2013-05-30 03:15:00,55.4,47.6,29.91,SW,230,0.0,0.0,75,0.00,CLR,,0.00,0.0,WeatherDisplay:10.37,2013-05-30 02:15:00,
2013-05-30 03:20:00,55.3,47.5,29.91,SW,230,0.0,0.0,75,0.00,CLR,,0.00,0.0,WeatherDisplay:10.37,2013-05-30 02:20:00,
2013-05-30 03:26:00,55.0,47.6,29.91,SW,233,0.0,0.0,76,0.00,CLR,,0.00,0.0,WeatherDisplay:10.37,2013-05-30 02:26:00,
2013-05-30 03:31:00,54.8,47.7,29.91,SW,234,0.0,0.0,77,0.00,CLR,,0.00,0.0,WeatherDisplay:10.37,2013-05-30 02:31:00,
2013-05-30 03:36:00,54.7,47.6,29.91,NNW,343,6.0,6.0,77,0.00,CLR,,0.00,0.0,WeatherDisplay:10.37,2013-05-30 02:36:00,
2013-05-30 03:41:00,54.8,47.0,29.91,NNW,333,6.9,6.9,75,0.00,CLR,,0.00,0.0,WeatherDisplay:10.37,2013-05-30 02:41:00,
2013-05-30 03:46:00,55.3,46.8,29.91,NW,323,4.6,4.6,73,0.00,CLR,,0.00,0.0,WeatherDisplay:10.37,2013-05-30 02:46:00,
2013-05-30 03:52:00,55.7,46.8,29.91,North,349,5.8,5.8,72,0.00,CLR,,0.00,0.0,WeatherDisplay:10.37,2013-05-30 02:52:00,
2013-05-30 03:57:00,55.9,47.0,29.91,NW,315,4.6,4.6,72,0.00,CLR,,0.00,0.0,WeatherDisplay:10.37,2013-05-30 02:57:00,
2013-05-30 04:02:00,55.9,47.0,29.91,NW,326,3.0,3.0,72,0.00,CLR,,0.00,0.0,WeatherDisplay:10.37,2013-05-30 03:02:00,
2013-05-30 04:07:00,55.9,47.0,29.91,NNW,332,0.0,0.0,72,0.00,CLR,,0.00,0.0,WeatherDisplay:10.37,2013-05-30 03:07:00,
2013-05-30 04:12:00,55.9,47.0,29.91,NNW,333,0.0,0.2,72,0.00,CLR,,0.00,0.0,WeatherDisplay:10.37,2013-05-30 03:12:00,
2013-05-30 04:17:00,55.7,47.2,29.91,NNW,328,0.0,0.3,73,0.00,OVC,,0.00,0.0,WeatherDisplay:10.37,2013-05-30 03:17:00,
2013-05-30 04:23:00,55.7,46.8,29.91,NW,319,3.5,3.5,72,0.00,OVC,,0.00,0.0,WeatherDisplay:10.37,2013-05-30 03:23:00,
2013-05-30 04:28:00,55.7,46.4,29.91,NNW,340,8.1,8.1,71,0.00,OVC,,0.00,0.0,WeatherDisplay:10.37,2013-05-30 03:28:00,
2013-05-30 04:33:00,55.9,46.6,29.91,NNW,337,0.0,0.1,71,0.00,OVC,,0.00,0.0,WeatherDisplay:10.37,2013-05-30 03:33:00,
2013-05-30 04:38:00,56.0,46.7,29.91,NNW,328,5.8,5.8,71,0.00,OVC,,0.00,0.0,WeatherDisplay:10.37,2013-05-30 03:38:00,
2013-05-30 04:43:00,56.0,46.7,29.91,NW,323,5.8,5.8,71,0.00,OVC,,0.00,0.0,WeatherDisplay:10.37,2013-05-30 03:43:00,
2013-05-30 04:49:00,56.0,46.7,29.91,NNW,340,5.0,5.0,71,0.00,OVC,,0.00,0.0,WeatherDisplay:10.37,2013-05-30 03:49:00,
2013-05-30 04:54:00,56.0,46.7,29.92,NNW,342,6.9,6.9,71,0.00,OVC,,0.00,0.0,WeatherDisplay:10.37,2013-05-30 03:54:00,
2013-05-30 04:59:00,56.0,46.7,29.92,NNW,336,6.9,6.9,71,0.00,OVC,,0.00,5.0,WeatherDisplay:10.37,2013-05-30 03:59:00,
2013-05-30 05:01:00,56.0,46.7,29.92,North,354,6.9,6.9,71,0.00,OVC,,0.00,5.0,WeatherDisplay:10.37,2013-05-30 04:01:00,
2013-05-30 05:02:00,56.0,46.7,29.92,NNW,335,6.9,6.9,71,0.00,OVC,,0.00,5.0,WeatherDisplay:10.37,2013-05-30 04:02:00,
2013-05-30 05:07:00,56.2,46.9,29.92,North,356,4.0,4.0,71,0.00,OVC,,0.00,5.0,WeatherDisplay:10.37,2013-05-30 04:07:00,
2013-05-30 05:12:00,56.2,46.9,29.92,North,357,6.0,6.0,71,0.00,OVC,,0.00,5.0,WeatherDisplay:10.37,2013-05-30 04:12:00,
2013-05-30 05:18:00,56.3,46.6,29.92,SE,124,5.8,5.8,70,0.00,OVC,,0.00,5.0,WeatherDisplay:10.37,2013-05-30 04:18:00,
2013-05-30 05:23:00,56.3,46.6,29.92,NNW,346,4.6,4.6,70,0.00,CLR,,0.00,5.0,WeatherDisplay:10.37,2013-05-30 04:23:00,
2013-05-30 05:28:00,56.3,46.6,29.92,NNW,332,4.6,4.6,70,0.00,BKN,,0.00,5.0,WeatherDisplay:10.37,2013-05-30 04:28:00,
2013-05-30 05:33:00,56.3,46.6,29.92,NNW,342,5.8,5.8,70,0.00,BKN,,0.00,7.0,WeatherDisplay:10.37,2013-05-30 04:33:00,
2013-05-30 05:38:00,56.3,47.0,29.92,North,353,3.5,3.5,71,0.00,BKN,,0.00,9.0,WeatherDisplay:10.37,2013-05-30 04:38:00,
2013-05-30 05:43:00,56.3,47.0,29.92,North,357,3.5,3.5,71,0.00,BKN,,0.00,11.0,WeatherDisplay:10.37,2013-05-30 04:43:00,
2013-05-30 05:48:00,56.2,46.9,29.92,NNW,347,4.6,4.6,71,0.00,OVC,,0.00,12.0,WeatherDisplay:10.37,2013-05-30 04:48:00,
2013-05-30 05:54:00,56.2,47.3,29.92,NNW,333,3.5,3.5,72,0.00,OVC,,0.00,12.0,WeatherDisplay:10.37,2013-05-30 04:54:00,
2013-05-30 05:59:00,56.0,47.8,29.92,NNW,335,6.9,6.9,74,0.01,RA,,0.01,14.0,WeatherDisplay:10.37,2013-05-30 04:59:00,
2013-05-30 06:04:00,55.7,47.9,29.92,NNW,340,6.0,6.0,75,0.01,RA,,0.01,16.0,WeatherDisplay:10.37,2013-05-30 05:04:00,
2013-05-30 06:09:00,55.6,47.8,29.92,NNW,335,5.8,5.8,75,0.01,OVC,,0.01,18.0,WeatherDisplay:10.37,2013-05-30 05:09:00,
2013-05-30 06:14:00,55.6,47.8,29.92,North,353,4.6,4.6,75,0.01,OVC,,0.01,21.0,WeatherDisplay:10.37,2013-05-30 05:14:00,
2013-05-30 06:19:00,55.6,47.4,29.92,NNW,347,6.9,6.9,74,0.01,OVC,,0.01,21.0,WeatherDisplay:10.37,2013-05-30 05:19:00,
2013-05-30 06:25:00,55.6,47.4,29.92,NNW,346,7.0,7.0,74,0.01,OVC,,0.01,21.0,WeatherDisplay:10.37,2013-05-30 05:25:00,
2013-05-30 06:30:00,55.7,47.5,29.92,NNW,340,3.5,3.5,74,0.01,OVC,,0.01,21.0,WeatherDisplay:10.37,2013-05-30 05:30:00,
2013-05-30 06:35:00,55.7,47.5,29.93,NNW,339,6.9,6.9,74,0.01,OVC,,0.01,23.0,WeatherDisplay:10.37,2013-05-30 05:35:00,
2013-05-30 06:40:00,55.7,47.5,29.93,NNW,329,4.6,4.6,74,0.01,OVC,,0.01,23.0,WeatherDisplay:10.37,2013-05-30 05:40:00,
2013-05-30 06:45:00,55.9,47.7,29.93,NNW,330,3.5,3.5,74,0.01,OVC,,0.01,25.0,WeatherDisplay:10.37,2013-05-30 05:45:00,
2013-05-30 06:50:00,55.9,47.7,29.93,NW,326,3.5,3.5,74,0.01,OVC,,0.01,25.0,WeatherDisplay:10.37,2013-05-30 05:50:00,
2013-05-30 06:56:00,55.7,47.5,29.93,NNW,330,4.6,4.6,74,0.01,OVC,,0.01,26.0,WeatherDisplay:10.37,2013-05-30 05:56:00,
2013-05-30 07:01:00,55.6,47.8,29.93,NW,320,4.6,4.6,75,0.00,OVC,,0.01,21.0,WeatherDisplay:10.37,2013-05-30 06:01:00,
2013-05-30 07:06:00,55.6,47.8,29.94,NNW,336,4.6,4.6,75,0.00,OVC,,0.01,19.0,WeatherDisplay:10.37,2013-05-30 06:06:00,
2013-05-30 07:11:00,55.6,47.8,29.94,NNW,335,0.0,0.0,75,0.00,OVC,,0.01,23.0,WeatherDisplay:10.37,2013-05-30 06:11:00,
2013-05-30 07:16:00,55.4,48.0,29.94,NNW,333,3.5,3.5,76,0.00,OVC,,0.01,26.0,WeatherDisplay:10.37,2013-05-30 06:16:00,
2013-05-30 07:21:00,55.4,48.0,29.94,NW,323,2.3,2.3,76,0.00,OVC,,0.01,23.0,WeatherDisplay:10.37,2013-05-30 06:21:00,
2013-05-30 07:26:00,55.4,48.0,29.94,NNW,335,4.6,4.6,76,0.00,OVC,,0.01,18.0,WeatherDisplay:10.37,2013-05-30 06:26:00,
2013-05-30 07:31:00,55.3,48.2,29.94,NW,311,2.3,2.3,77,0.00,OVC,,0.01,18.0,WeatherDisplay:10.37,2013-05-30 06:31:00,
2013-05-30 07:36:00,55.3,48.2,29.95,NNW,346,4.6,4.6,77,0.00,OVC,,0.01,19.0,WeatherDisplay:10.37,2013-05-30 06:36:00,
2013-05-30 07:42:00,55.1,48.0,29.95,North,354,5.8,5.8,77,0.00,OVC,,0.01,37.0,WeatherDisplay:10.37,2013-05-30 06:42:00,
2013-05-30 07:47:00,55.1,47.7,29.95,NNW,337,5.8,5.8,76,0.00,OVC,,0.01,40.0,WeatherDisplay:10.37,2013-05-30 06:47:00,
2013-05-30 07:52:00,55.3,47.9,29.95,NW,322,5.0,5.0,76,0.00,OVC,,0.01,48.0,WeatherDisplay:10.37,2013-05-30 06:52:00,
2013-05-30 07:58:00,55.6,47.8,29.95,NNW,329,5.8,5.8,75,0.00,OVC,,0.01,62.0,WeatherDisplay:10.37,2013-05-30 06:58:00,
2013-05-30 08:03:00,55.7,47.9,29.95,NNW,343,3.5,3.5,75,0.00,OVC,,0.01,70.0,WeatherDisplay:10.37,2013-05-30 07:03:00,
2013-05-30 08:08:00,55.9,47.7,29.96,NW,304,6.9,6.9,74,0.00,OVC,,0.01,74.0,WeatherDisplay:10.37,2013-05-30 07:08:00,
2013-05-30 08:13:00,56.0,48.2,29.96,North,353,5.8,5.8,75,0.00,OVC,,0.01,76.0,WeatherDisplay:10.37,2013-05-30 07:13:00,
2013-05-30 08:18:00,56.0,47.8,29.96,NNW,342,5.8,5.8,74,0.00,OVC,,0.01,77.0,WeatherDisplay:10.37,2013-05-30 07:18:00,
2013-05-30 08:24:00,56.0,47.8,29.96,ESE,109,4.6,4.6,74,0.00,OVC,,0.01,81.0,WeatherDisplay:10.37,2013-05-30 07:24:00,
2013-05-30 08:29:00,56.0,48.2,29.96,NNW,343,5.8,5.8,75,0.00,OVC,,0.01,83.0,WeatherDisplay:10.37,2013-05-30 07:29:00,
2013-05-30 08:34:00,56.0,48.5,29.96,NNW,342,4.6,4.6,76,0.00,OVC,,0.01,111.0,WeatherDisplay:10.37,2013-05-30 07:34:00,
2013-05-30 08:39:00,56.0,48.9,29.96,North,352,3.5,3.5,77,0.00,OVC,,0.01,118.0,WeatherDisplay:10.37,2013-05-30 07:39:00,
2013-05-30 08:44:00,56.0,48.5,29.96,NNW,339,6.9,6.9,76,0.00,OVC,,0.01,128.0,WeatherDisplay:10.37,2013-05-30 07:44:00,
2013-05-30 08:49:00,56.2,48.7,29.96,NNW,330,5.8,5.8,76,0.00,BKN,,0.01,169.0,WeatherDisplay:10.37,2013-05-30 07:49:00,
2013-05-30 08:55:00,56.5,49.0,29.96,NW,322,5.8,5.8,76,0.00,BKN,,0.01,183.0,WeatherDisplay:10.37,2013-05-30 07:55:00,
2013-05-30 09:00:00,56.7,48.9,29.96,NNW,339,3.0,6.0,75,0.00,SCT,,0.01,264.0,WeatherDisplay:10.37,2013-05-30 08:00:00,
2013-05-30 09:05:00,57.5,48.9,29.96,NNW,329,4.6,4.6,73,0.00,SCT,,0.01,278.0,WeatherDisplay:10.37,2013-05-30 08:05:00,
2013-05-30 09:10:00,58.7,49.7,29.96,NW,325,6.0,6.0,72,0.00,CLR,,0.01,561.0,WeatherDisplay:10.37,2013-05-30 08:10:00,
2013-05-30 09:15:00,59.5,50.5,29.96,NNW,332,6.0,6.0,72,0.00,SCT,,0.01,357.0,WeatherDisplay:10.37,2013-05-30 08:15:00,
2013-05-30 09:20:00,59.9,50.8,29.96,NNW,346,5.8,5.8,72,0.00,FEW,,0.01,413.0,WeatherDisplay:10.37,2013-05-30 08:20:00,
2013-05-30 09:25:00,59.8,50.0,29.96,North,350,8.1,8.1,70,0.00,BKN,,0.01,223.0,WeatherDisplay:10.37,2013-05-30 08:25:00,
2013-05-30 09:30:00,59.3,50.3,29.96,NNW,346,8.1,8.1,72,0.00,BKN,,0.01,253.0,WeatherDisplay:10.37,2013-05-30 08:30:00,
2013-05-30 09:36:00,59.2,50.5,29.96,NNW,336,2.3,2.3,73,0.00,BKN,,0.01,294.0,WeatherDisplay:10.37,2013-05-30 08:36:00,
2013-05-30 09:41:00,59.3,49.9,29.97,NNW,335,8.1,8.1,71,0.00,SCT,,0.01,318.0,WeatherDisplay:10.37,2013-05-30 08:41:00,
2013-05-30 09:46:00,59.6,50.9,29.97,North,356,6.9,6.9,73,0.00,SCT,,0.01,306.0,WeatherDisplay:10.37,2013-05-30 08:46:00,
2013-05-30 09:51:00,59.6,50.2,29.97,NNW,342,8.1,8.1,71,0.00,BKN,,0.01,304.0,WeatherDisplay:10.37,2013-05-30 08:51:00,
2013-05-30 09:56:00,59.8,50.8,29.97,NNW,346,5.8,5.8,72,0.00,BKN,,0.01,331.0,WeatherDisplay:10.37,2013-05-30 08:56:00,
2013-05-30 10:02:00,60.1,50.7,29.97,NNW,340,5.8,5.8,71,0.00,SCT,,0.01,341.0,WeatherDisplay:10.37,2013-05-30 09:02:00,
2013-05-30 10:07:00,60.5,50.7,29.97,NNW,330,5.8,5.8,70,0.00,SCT,,0.01,373.0,WeatherDisplay:10.37,2013-05-30 09:07:00,
2013-05-30 10:12:00,61.3,50.6,29.97,North,354,6.9,6.9,68,0.00,SCT,,0.01,375.0,WeatherDisplay:10.37,2013-05-30 09:12:00,
2013-05-30 10:17:00,62.1,51.4,29.97,NNW,336,6.9,6.9,68,0.00,CLR,,0.01,927.0,WeatherDisplay:10.37,2013-05-30 09:17:00,
2013-05-30 10:22:00,62.7,51.2,29.97,NNW,332,10.4,10.4,66,0.00,CLR,,0.01,941.0,WeatherDisplay:10.37,2013-05-30 09:22:00,
2013-05-30 10:28:00,62.7,50.8,29.97,North,350,16.1,16.1,65,0.00,SCT,,0.01,428.0,WeatherDisplay:10.37,2013-05-30 09:28:00,
2013-05-30 10:33:00,62.9,51.4,29.97,NNW,329,6.9,6.9,66,0.00,FEW,,0.01,595.0,WeatherDisplay:10.37,2013-05-30 09:33:00,
2013-05-30 10:38:00,63.1,50.3,29.97,NNW,344,8.1,8.1,63,0.00,BKN,,0.01,354.0,WeatherDisplay:10.37,2013-05-30 09:38:00,
2013-05-30 10:43:00,62.7,51.2,29.97,NNW,343,10.4,10.4,66,0.00,BKN,,0.01,347.0,WeatherDisplay:10.37,2013-05-30 09:43:00,
2013-05-30 10:48:00,62.1,50.2,29.97,North,354,9.2,9.2,65,0.00,BKN,,0.01,366.0,WeatherDisplay:10.37,2013-05-30 09:48:00,
2013-05-30 10:53:00,62.3,51.2,29.97,North,349,3.0,3.0,67,0.00,SCT,,0.01,424.0,WeatherDisplay:10.37,2013-05-30 09:53:00,
2013-05-30 10:58:00,63.5,51.1,29.97,North,349,8.1,8.1,64,0.00,SCT,,0.01,482.0,WeatherDisplay:10.37,2013-05-30 09:58:00,
2013-05-30 11:03:00,63.9,51.9,29.97,NNW,337,3.5,3.5,65,0.00,SCT,,0.01,482.0,WeatherDisplay:10.37,2013-05-30 10:03:00,
2013-05-30 11:09:00,63.7,50.4,29.97,NNW,339,8.1,8.1,62,0.00,SCT,,0.01,436.0,WeatherDisplay:10.37,2013-05-30 10:09:00,
2013-05-30 11:14:00,63.5,50.2,29.97,NNW,336,6.9,6.9,62,0.00,SCT,,0.01,440.0,WeatherDisplay:10.37,2013-05-30 10:14:00,
2013-05-30 11:19:00,63.2,50.4,29.97,NNW,346,10.4,10.4,63,0.00,BKN,,0.01,340.0,WeatherDisplay:10.37,2013-05-30 10:19:00,
2013-05-30 11:24:00,62.7,50.3,29.98,NNW,347,4.6,4.6,64,0.00,BKN,,0.01,311.0,WeatherDisplay:10.37,2013-05-30 10:24:00,
2013-05-30 11:29:00,62.7,51.6,29.98,North,357,5.8,5.8,67,0.00,BKN,,0.01,322.0,WeatherDisplay:10.37,2013-05-30 10:29:00,
2013-05-30 11:34:00,62.6,50.7,29.98,NNW,346,4.6,4.6,65,0.00,BKN,,0.01,333.0,WeatherDisplay:10.37,2013-05-30 10:34:00,
2013-05-30 11:39:00,62.6,50.7,29.98,NNW,344,6.9,6.9,65,0.00,BKN,,0.01,456.0,WeatherDisplay:10.37,2013-05-30 10:39:00,
2013-05-30 11:44:00,63.1,51.1,29.98,North,359,5.8,5.8,65,0.00,BKN,,0.01,417.0,WeatherDisplay:10.37,2013-05-30 10:44:00,
2013-05-30 11:49:00,63.7,51.3,29.98,North,353,6.9,6.9,64,0.00,BKN,,0.01,457.0,WeatherDisplay:10.37,2013-05-30 10:49:00,
2013-05-30 11:55:00,64.2,52.2,29.98,North,352,2.3,0.0,65,0.00,BKN,,0.01,389.0,WeatherDisplay:10.37,2013-05-30 10:55:00,
2013-05-30 12:00:00,65.3,52.4,29.97,NNW,347,5.8,5.9,63,0.00,CLR,,0.01,927.0,WeatherDisplay:10.37,2013-05-30 11:00:00,
2013-05-30 12:05:00,66.0,52.6,29.97,NNW,330,8.1,8.1,62,0.00,CLR,,0.01,917.0,WeatherDisplay:10.37,2013-05-30 11:05:00,
2013-05-30 12:10:00,66.3,52.0,29.97,NNW,335,7.0,7.0,60,0.00,CLR,,0.01,1005.0,WeatherDisplay:10.37,2013-05-30 11:10:00,
2013-05-30 12:15:00,66.9,53.5,29.97,NNW,344,5.8,5.8,62,0.00,CLR,,0.01,1024.0,WeatherDisplay:10.37,2013-05-30 11:15:00,
2013-05-30 12:20:00,67.4,53.5,29.97,South,171,3.5,3.5,61,0.00,CLR,,0.01,1017.0,WeatherDisplay:10.37,2013-05-30 11:20:00,
2013-05-30 12:25:00,67.8,53.9,29.97,NNW,329,7.0,7.0,61,0.00,CLR,,0.01,1056.0,WeatherDisplay:10.37,2013-05-30 11:25:00,
2013-05-30 12:30:00,67.1,52.7,29.97,North,357,6.9,6.9,60,0.00,CLR,,0.01,845.0,WeatherDisplay:10.37,2013-05-30 11:30:00,
2013-05-30 12:36:00,66.8,52.9,29.98,SE,127,4.6,4.6,61,0.00,BKN,,0.01,391.0,WeatherDisplay:10.37,2013-05-30 11:36:00,
2013-05-30 12:41:00,66.3,53.3,29.98,North,356,3.5,3.5,63,0.00,SCT,,0.01,584.0,WeatherDisplay:10.37,2013-05-30 11:41:00,
2013-05-30 12:46:00,67.1,54.5,29.98,SSE,162,5.8,5.8,64,0.00,BKN,,0.01,382.0,WeatherDisplay:10.37,2013-05-30 11:46:00,
2013-05-30 12:51:00,66.8,51.5,29.98,NNW,342,6.9,6.9,58,0.00,BKN,,0.01,394.0,WeatherDisplay:10.37,2013-05-30 11:51:00,
2013-05-30 12:56:00,66.6,52.3,29.98,SE,136,10.4,10.4,60,0.00,OVC,,0.01,304.0,WeatherDisplay:10.37,2013-05-30 11:56:00,
2013-05-30 13:01:00,66.3,52.9,29.98,SE,137,5.8,5.8,62,0.00,BKN,,0.01,361.0,WeatherDisplay:10.37,2013-05-30 12:01:00,
2013-05-30 13:07:00,66.9,53.9,29.99,SSE,157,8.1,8.1,63,0.00,FEW,,0.01,797.0,WeatherDisplay:10.37,2013-05-30 12:07:00,
2013-05-30 13:12:00,67.4,53.9,29.99,South,175,4.6,4.6,62,0.00,BKN,,0.01,510.0,WeatherDisplay:10.37,2013-05-30 12:12:00,
2013-05-30 13:17:00,67.1,54.5,29.98,NNW,347,4.0,4.0,64,0.00,BKN,,0.01,480.0,WeatherDisplay:10.37,2013-05-30 12:17:00,
2013-05-30 13:22:00,67.9,53.5,29.98,SE,136,9.2,9.2,60,0.00,BKN,,0.01,480.0,WeatherDisplay:10.37,2013-05-30 12:22:00,
2013-05-30 13:28:00,67.9,52.6,29.99,SSE,155,5.8,5.8,58,0.00,SCT,,0.01,688.0,WeatherDisplay:10.37,2013-05-30 12:28:00,
2013-05-30 13:33:00,67.8,52.9,29.99,SSE,155,6.0,6.0,59,0.00,SCT,,0.01,718.0,WeatherDisplay:10.37,2013-05-30 12:33:00,
2013-05-30 13:38:00,68.9,54.0,29.99,SSE,157,5.8,5.8,59,0.00,CLR,,0.01,1054.0,WeatherDisplay:10.37,2013-05-30 12:38:00,
2013-05-30 13:43:00,68.6,53.2,29.99,NNW,343,6.9,6.9,58,0.00,CLR,,0.01,1077.0,WeatherDisplay:10.37,2013-05-30 12:43:00,
2013-05-30 13:48:00,67.6,52.8,29.99,SE,134,6.9,6.9,59,0.00,OVC,,0.01,340.0,WeatherDisplay:10.37,2013-05-30 12:48:00,
2013-05-30 13:54:00,66.4,51.6,30.00,WSW,244,5.8,5.8,59,0.00,BKN,,0.01,510.0,WeatherDisplay:10.37,2013-05-30 12:54:00,
2013-05-30 13:59:00,67.1,52.7,30.00,SSW,203,5.0,5.0,60,0.00,SCT,,0.01,535.0,WeatherDisplay:10.37,2013-05-30 12:59:00,
2013-05-30 14:04:00,67.4,53.9,30.00,North,359,6.9,6.9,62,0.00,BKN,,0.01,359.0,WeatherDisplay:10.37,2013-05-30 13:04:00,
2013-05-30 14:09:00,67.3,53.8,30.00,SSW,208,2.3,2.3,62,0.00,BKN,,0.01,482.0,WeatherDisplay:10.37,2013-05-30 13:09:00,
2013-05-30 14:14:00,68.8,54.8,30.00,NW,304,5.8,5.8,61,0.00,CLR,,0.01,1042.0,WeatherDisplay:10.37,2013-05-30 13:14:00,
2013-05-30 14:19:00,69.4,54.0,30.00,NNW,343,4.6,4.6,58,0.00,CLR,,0.01,1042.0,WeatherDisplay:10.37,2013-05-30 13:19:00,
2013-05-30 14:24:00,70.1,55.1,30.00,SSE,164,6.9,6.9,59,0.00,CLR,,0.01,1084.0,WeatherDisplay:10.37,2013-05-30 13:24:00,
2013-05-30 14:29:00,70.1,54.2,30.00,WSW,251,5.8,5.8,57,0.00,CLR,,0.01,1096.0,WeatherDisplay:10.37,2013-05-30 13:29:00,
2013-05-30 14:34:00,69.9,54.9,30.00,West,265,6.9,6.9,59,0.00,CLR,,0.01,1096.0,WeatherDisplay:10.37,2013-05-30 13:34:00,
2013-05-30 14:39:00,70.3,54.8,30.00,SSE,147,4.6,4.6,58,0.00,CLR,,0.01,521.0,WeatherDisplay:10.37,2013-05-30 13:39:00,
2013-05-30 14:44:00,69.9,54.0,30.00,SSE,164,4.6,4.6,57,0.00,SCT,,0.01,521.0,WeatherDisplay:10.37,2013-05-30 13:44:00,
2013-05-30 14:49:00,69.8,55.3,30.00,North,357,4.6,4.6,60,0.00,BKN,,0.01,450.0,WeatherDisplay:10.37,2013-05-30 13:49:00,
2013-05-30 14:54:00,69.9,56.3,30.00,South,182,5.8,5.8,62,0.00,BKN,,0.01,450.0,WeatherDisplay:10.37,2013-05-30 13:54:00,
2013-05-30 14:59:00,68.9,54.4,30.00,SSE,165,6.9,6.9,60,0.00,OVC,,0.01,320.0,WeatherDisplay:10.37,2013-05-30 13:59:00,
2013-05-30 15:05:00,67.8,53.4,30.00,South,182,3.5,3.5,60,0.00,OVC,,0.01,213.0,WeatherDisplay:10.37,2013-05-30 14:05:00,
2013-05-30 15:10:00,67.3,55.1,30.00,South,186,5.8,5.8,65,0.00,OVC,,0.01,243.0,WeatherDisplay:10.37,2013-05-30 14:10:00,
2013-05-30 15:15:00,67.0,53.9,30.00,SSE,163,2.0,6.0,63,0.00,OVC,,0.01,250.0,WeatherDisplay:10.37,2013-05-30 14:15:00,
2013-05-30 15:20:00,66.6,54.0,30.00,SSE,161,2.3,2.3,64,0.00,OVC,,0.01,197.0,WeatherDisplay:10.37,2013-05-30 14:20:00,
2013-05-30 15:25:00,66.3,54.6,30.00,South,185,3.5,3.5,66,0.00,OVC,,0.01,176.0,WeatherDisplay:10.37,2013-05-30 14:25:00,
2013-05-30 15:30:00,66.1,54.0,30.00,South,186,4.6,4.6,65,0.00,OVC,,0.01,206.0,WeatherDisplay:10.37,2013-05-30 14:30:00,
2013-05-30 15:35:00,66.0,53.9,30.01,SSW,200,4.6,4.6,65,0.00,OVC,,0.01,252.0,WeatherDisplay:10.37,2013-05-30 14:35:00,
2013-05-30 15:41:00,66.1,54.4,30.01,South,191,4.0,4.0,66,0.00,OVC,,0.01,273.0,WeatherDisplay:10.37,2013-05-30 14:41:00,
2013-05-30 15:46:00,66.0,55.1,30.01,South,174,6.9,6.9,68,0.00,BKN,,0.01,354.0,WeatherDisplay:10.37,2013-05-30 14:46:00,
2013-05-30 15:51:00,66.1,54.4,30.01,SW,229,4.6,4.6,66,0.00,BKN,,0.01,350.0,WeatherDisplay:10.37,2013-05-30 14:51:00,
2013-05-30 15:56:00,66.0,54.7,30.01,SW,234,5.8,5.8,67,0.00,OVC,,0.01,280.0,WeatherDisplay:10.37,2013-05-30 14:56:00,
2013-05-30 16:01:00,65.8,54.5,30.01,SW,232,8.1,8.1,67,0.00,OVC,,0.01,260.0,WeatherDisplay:10.37,2013-05-30 15:01:00,
2013-05-30 16:06:00,65.8,54.9,30.01,North,359,6.9,6.9,68,0.00,OVC,,0.01,296.0,WeatherDisplay:10.37,2013-05-30 15:06:00,
2013-05-30 16:11:00,65.8,54.5,30.01,SSW,198,6.9,6.9,67,0.00,BKN,,0.01,326.0,WeatherDisplay:10.37,2013-05-30 15:11:00,
2013-05-30 16:16:00,65.8,54.5,30.01,SSE,164,6.9,6.9,67,0.00,BKN,,0.01,287.0,WeatherDisplay:10.37,2013-05-30 15:16:00,
2013-05-30 16:21:00,66.0,54.7,30.01,SSW,195,4.6,4.6,67,0.00,BKN,,0.01,421.0,WeatherDisplay:10.37,2013-05-30 15:21:00,
2013-05-30 16:27:00,66.1,54.0,30.01,SW,233,8.1,8.1,65,0.00,BKN,,0.01,292.0,WeatherDisplay:10.37,2013-05-30 15:27:00,
2013-05-30 16:32:00,66.1,54.8,30.01,SSW,195,3.5,3.5,67,0.00,BKN,,0.01,303.0,WeatherDisplay:10.37,2013-05-30 15:32:00,
2013-05-30 16:37:00,66.4,54.7,30.01,SSW,199,4.6,4.6,66,0.00,OVC,,0.01,227.0,WeatherDisplay:10.37,2013-05-30 15:37:00,
2013-05-30 16:42:00,66.3,54.6,30.01,SSW,200,2.3,2.3,66,0.00,CLR,,0.01,741.0,WeatherDisplay:10.37,2013-05-30 15:42:00,
2013-05-30 16:47:00,67.6,55.4,30.01,South,179,5.8,5.8,65,0.00,FEW,,0.01,628.0,WeatherDisplay:10.37,2013-05-30 15:47:00,
2013-05-30 16:52:00,68.3,56.1,30.01,WSW,248,3.5,3.5,65,0.00,FEW,,0.01,611.0,WeatherDisplay:10.37,2013-05-30 15:52:00,
2013-05-30 16:57:00,67.8,54.7,30.01,South,172,2.3,2.3,63,0.00,FEW,,0.01,611.0,WeatherDisplay:10.37,2013-05-30 15:57:00,
2013-05-30 17:02:00,67.9,54.8,30.01,South,186,5.8,5.8,63,0.00,FEW,,0.01,591.0,WeatherDisplay:10.37,2013-05-30 16:02:00,
2013-05-30 17:08:00,68.4,54.4,30.01,SW,219,4.6,4.6,61,0.00,FEW,,0.01,582.0,WeatherDisplay:10.37,2013-05-30 16:08:00,
2013-05-30 17:13:00,68.8,55.7,30.01,SW,219,1.2,1.2,63,0.00,FEW,,0.01,567.0,WeatherDisplay:10.37,2013-05-30 16:13:00,
2013-05-30 17:18:00,69.4,54.4,30.01,South,179,3.5,3.5,59,0.00,FEW,,0.01,552.0,WeatherDisplay:10.37,2013-05-30 16:18:00,
2013-05-30 17:23:00,69.1,55.1,30.01,SSE,168,1.2,1.2,61,0.00,FEW,,0.01,542.0,WeatherDisplay:10.37,2013-05-30 16:23:00,
2013-05-30 17:28:00,69.1,54.2,30.01,South,176,0.0,0.0,59,0.00,FEW,,0.01,528.0,WeatherDisplay:10.37,2013-05-30 16:28:00,
2013-05-30 17:33:00,69.3,55.3,30.01,WSW,240,3.5,3.5,61,0.00,FEW,,0.01,517.0,WeatherDisplay:10.37,2013-05-30 16:33:00,
2013-05-30 17:38:00,69.3,54.4,30.01,SW,229,4.6,4.6,59,0.00,FEW,,0.01,509.0,WeatherDisplay:10.37,2013-05-30 16:38:00,
2013-05-30 17:43:00,69.6,54.6,30.01,SSW,212,1.2,1.2,59,0.00,FEW,,0.01,494.0,WeatherDisplay:10.37,2013-05-30 16:43:00,
2013-05-30 17:48:00,69.8,55.7,30.01,SSE,168,3.5,0.0,61,0.00,FEW,,0.01,482.0,WeatherDisplay:10.37,2013-05-30 16:48:00,
2013-05-30 17:54:00,69.3,54.4,30.01,SSW,198,2.3,2.3,59,0.00,FEW,,0.01,470.0,WeatherDisplay:10.37,2013-05-30 16:54:00,
2013-05-30 17:59:00,70.1,55.1,30.01,North,357,3.5,3.5,59,0.00,FEW,,0.01,465.0,WeatherDisplay:10.37,2013-05-30 16:59:00,
2013-05-30 18:04:00,70.1,54.6,30.01,North,357,3.5,3.5,58,0.00,FEW,,0.01,452.0,WeatherDisplay:10.37,2013-05-30 17:04:00,
2013-05-30 18:09:00,70.3,55.3,30.01,North,354,0.0,0.2,59,0.00,FEW,,0.01,449.0,WeatherDisplay:10.37,2013-05-30 17:09:00,
2013-05-30 18:14:00,69.9,54.9,30.01,North,359,3.5,3.5,59,0.00,BKN,,0.01,248.0,WeatherDisplay:10.37,2013-05-30 17:14:00,
2013-05-30 18:19:00,69.9,54.9,30.01,North,356,2.3,2.3,59,0.00,CLR,,0.01,454.0,WeatherDisplay:10.37,2013-05-30 17:19:00,
2013-05-30 18:24:00,70.6,55.1,30.01,WSW,240,3.5,3.5,58,0.00,CLR,,0.01,428.0,WeatherDisplay:10.37,2013-05-30 17:24:00,
2013-05-30 18:29:00,70.6,54.6,30.01,North,356,3.5,3.5,57,0.00,FEW,,0.01,403.0,WeatherDisplay:10.37,2013-05-30 17:29:00,
2013-05-30 18:34:00,70.1,55.1,30.01,WSW,248,3.5,3.5,59,0.00,FEW,,0.01,387.0,WeatherDisplay:10.37,2013-05-30 17:34:00,
2013-05-30 18:40:00,69.9,54.4,30.01,West,260,0.0,0.0,58,0.00,CLR,,0.01,389.0,WeatherDisplay:10.37,2013-05-30 17:40:00,
2013-05-30 18:45:00,70.1,56.0,30.01,WSW,257,2.3,2.3,61,0.00,FEW,,0.01,366.0,WeatherDisplay:10.37,2013-05-30 17:45:00,
2013-05-30 18:50:00,70.4,55.4,30.01,NW,313,6.9,6.9,59,0.00,CLR,,0.01,355.0,WeatherDisplay:10.37,2013-05-30 17:50:00,
2013-05-30 18:55:00,70.4,54.4,30.01,West,281,2.0,2.0,57,0.00,FEW,,0.01,333.0,WeatherDisplay:10.37,2013-05-30 17:55:00,
2013-05-30 19:00:00,70.1,55.1,30.01,West,280,4.6,4.6,59,0.00,SCT,,0.01,269.0,WeatherDisplay:10.37,2013-05-30 18:00:00,
2013-05-30 19:05:00,69.8,54.8,30.01,WNW,284,2.3,2.3,59,0.00,OVC,,0.01,90.0,WeatherDisplay:10.37,2013-05-30 18:05:00,
2013-05-30 19:11:00,68.9,54.9,30.01,WSW,243,2.3,2.3,61,0.00,CLR,,0.01,299.0,WeatherDisplay:10.37,2013-05-30 18:11:00,
2013-05-30 19:16:00,68.9,54.0,30.01,WSW,247,2.3,2.3,59,0.00,OVC,,0.01,102.0,WeatherDisplay:10.37,2013-05-30 18:16:00,
2013-05-30 19:21:00,68.8,54.3,30.01,WSW,250,0.0,0.0,60,0.00,CLR,,0.01,310.0,WeatherDisplay:10.37,2013-05-30 18:21:00,
2013-05-30 19:26:00,68.9,54.0,30.01,SW,227,0.0,0.0,59,0.00,BKN,,0.01,120.0,WeatherDisplay:10.37,2013-05-30 18:26:00,
2013-05-30 19:31:00,68.9,54.9,30.01,NNW,344,6.0,6.0,61,0.00,FEW,,0.01,250.0,WeatherDisplay:10.37,2013-05-30 18:31:00,
2013-05-30 19:37:00,68.4,56.2,30.02,NNW,343,4.6,4.6,65,0.00,FEW,,0.01,246.0,WeatherDisplay:10.37,2013-05-30 18:37:00,
2013-05-30 19:42:00,68.3,56.1,30.02,North,357,3.5,3.5,65,0.00,CLR,,0.01,241.0,WeatherDisplay:10.37,2013-05-30 18:42:00,
2013-05-30 19:47:00,68.1,55.9,30.02,SW,222,3.5,3.5,65,0.00,FEW,,0.01,225.0,WeatherDisplay:10.37,2013-05-30 18:47:00,
2013-05-30 19:52:00,67.9,55.7,30.02,WNW,291,5.8,5.8,65,0.00,SCT,,0.01,135.0,WeatherDisplay:10.37,2013-05-30 18:52:00,
2013-05-30 19:57:00,67.6,55.4,30.02,SW,229,3.5,0.0,65,0.00,OVC,,0.01,62.0,WeatherDisplay:10.37,2013-05-30 18:57:00,
2013-05-30 20:03:00,66.9,55.2,30.02,SW,226,2.3,2.3,66,0.00,OVC,,0.01,42.0,WeatherDisplay:10.37,2013-05-30 19:03:00,
2013-05-30 20:08:00,66.3,55.4,30.02,North,356,1.2,1.2,68,0.00,OVC,,0.01,40.0,WeatherDisplay:10.37,2013-05-30 19:08:00,
2013-05-30 20:13:00,66.0,55.5,30.03,NW,315,3.5,3.5,69,0.00,OVC,,0.01,60.0,WeatherDisplay:10.37,2013-05-30 19:13:00,
2013-05-30 20:18:00,65.8,54.9,30.03,NW,306,1.2,1.2,68,0.00,SCT,,0.01,132.0,WeatherDisplay:10.37,2013-05-30 19:18:00,
2013-05-30 20:23:00,65.6,54.8,30.03,NW,308,1.2,1.2,68,0.00,SCT,,0.01,125.0,WeatherDisplay:10.37,2013-05-30 19:23:00,
2013-05-30 20:28:00,65.3,54.1,30.03,WSW,237,3.5,3.5,67,0.00,SCT,,0.01,116.0,WeatherDisplay:10.37,2013-05-30 19:28:00,
2013-05-30 20:34:00,64.8,54.0,30.03,NW,313,3.5,3.5,68,0.00,FEW,,0.01,120.0,WeatherDisplay:10.37,2013-05-30 19:34:00,
2013-05-30 20:39:00,64.5,54.1,30.03,North,359,0.0,0.0,69,0.00,SCT,,0.01,95.0,WeatherDisplay:10.37,2013-05-30 19:39:00,
2013-05-30 20:44:00,64.0,53.6,30.03,North,357,3.5,3.5,69,0.00,SCT,,0.01,93.0,WeatherDisplay:10.37,2013-05-30 19:44:00,
2013-05-30 20:49:00,63.9,54.3,30.03,NNW,336,1.2,0.0,71,0.00,SCT,,0.01,84.0,WeatherDisplay:10.37,2013-05-30 19:49:00,
2013-05-30 20:54:00,63.5,54.3,30.03,SW,232,2.3,2.3,72,0.00,BKN,,0.01,53.0,WeatherDisplay:10.37,2013-05-30 19:54:00,
2013-05-30 20:59:00,63.2,54.0,30.03,NW,312,4.6,4.6,72,0.00,BKN,,0.01,51.0,WeatherDisplay:10.37,2013-05-30 19:59:00,
2013-05-30 21:04:00,62.7,53.5,30.04,NW,311,3.5,3.5,72,0.00,BKN,,0.01,40.0,WeatherDisplay:10.37,2013-05-30 20:04:00,
2013-05-30 21:09:00,62.4,53.6,30.04,SW,236,2.3,2.3,73,0.00,BKN,,0.01,35.0,WeatherDisplay:10.37,2013-05-30 20:09:00,
2013-05-30 21:14:00,62.1,53.7,30.04,North,357,2.3,2.3,74,0.00,OVC,,0.01,25.0,WeatherDisplay:10.37,2013-05-30 20:14:00,
2013-05-30 21:20:00,61.8,53.4,30.04,WNW,302,3.5,3.5,74,0.00,OVC,,0.01,25.0,WeatherDisplay:10.37,2013-05-30 20:20:00,
2013-05-30 21:25:00,61.5,53.1,30.04,WNW,287,0.0,0.1,74,0.00,OVC,,0.01,23.0,WeatherDisplay:10.37,2013-05-30 20:25:00,
2013-05-30 21:30:00,61.2,53.2,30.05,SW,232,3.5,3.5,75,0.00,OVC,,0.01,16.0,WeatherDisplay:10.37,2013-05-30 20:30:00,
2013-05-30 21:35:00,60.7,53.1,30.05,WSW,240,2.3,2.3,76,0.00,OVC,,0.01,7.0,WeatherDisplay:10.37,2013-05-30 20:35:00,
2013-05-30 21:40:00,60.4,52.8,30.05,North,354,3.5,3.5,76,0.00,OVC,,0.01,9.0,WeatherDisplay:10.37,2013-05-30 20:40:00,
2013-05-30 21:46:00,60.1,52.9,30.05,NW,320,3.5,3.5,77,0.00,OVC,,0.01,7.0,WeatherDisplay:10.37,2013-05-30 20:46:00,
2013-05-30 21:51:00,59.9,52.7,30.05,SW,233,3.0,3.0,77,0.00,OVC,,0.01,5.0,WeatherDisplay:10.37,2013-05-30 20:51:00,
2013-05-30 21:56:00,59.5,52.3,30.05,NNW,335,2.3,2.3,77,0.00,OVC,,0.01,5.0,WeatherDisplay:10.37,2013-05-30 20:56:00,
2013-05-30 22:01:00,59.3,52.4,30.05,NNW,335,3.5,3.5,78,0.00,CLR,,0.01,0.0,WeatherDisplay:10.37,2013-05-30 21:01:00,
2013-05-30 22:06:00,59.0,52.1,30.05,WSW,240,3.5,3.5,78,0.00,CLR,,0.01,0.0,WeatherDisplay:10.37,2013-05-30 21:06:00,
2013-05-30 22:12:00,58.7,52.2,30.05,NW,319,3.5,3.5,79,0.00,CLR,,0.01,0.0,WeatherDisplay:10.37,2013-05-30 21:12:00,
2013-05-30 22:17:00,58.4,51.9,30.05,North,354,4.6,4.6,79,0.00,CLR,,0.01,0.0,WeatherDisplay:10.37,2013-05-30 21:17:00,
2013-05-30 22:22:00,58.1,52.0,30.05,NW,326,4.0,4.0,80,0.00,CLR,,0.01,0.0,WeatherDisplay:10.37,2013-05-30 21:22:00,
2013-05-30 22:27:00,57.8,51.7,30.05,NNW,339,3.5,3.5,80,0.00,CLR,,0.01,0.0,WeatherDisplay:10.37,2013-05-30 21:27:00,
2013-05-30 22:32:00,57.6,51.5,30.05,SW,234,4.6,4.6,80,0.00,CLR,,0.01,0.0,WeatherDisplay:10.37,2013-05-30 21:32:00,
2013-05-30 22:37:00,57.3,51.5,30.06,WNW,294,3.5,0.0,81,0.00,CLR,,0.01,0.0,WeatherDisplay:10.37,2013-05-30 21:37:00,
2013-05-30 22:43:00,57.0,51.2,30.06,SW,226,3.5,0.0,81,0.00,CLR,,0.01,0.0,WeatherDisplay:10.37,2013-05-30 21:43:00,
2013-05-30 22:48:00,56.9,51.5,30.06,SW,224,4.6,4.6,82,0.00,CLR,,0.01,0.0,WeatherDisplay:10.37,2013-05-30 21:48:00,
2013-05-30 22:53:00,56.7,51.3,30.06,North,356,1.2,1.2,82,0.00,CLR,,0.01,0.0,WeatherDisplay:10.37,2013-05-30 21:53:00,
2013-05-30 22:58:00,56.5,51.1,30.06,WNW,289,2.3,2.3,82,0.00,CLR,,0.01,0.0,WeatherDisplay:10.37,2013-05-30 21:58:00,
2013-05-30 23:03:00,56.2,50.8,30.06,SW,224,2.3,2.3,82,0.00,CLR,,0.01,0.0,WeatherDisplay:10.37,2013-05-30 22:03:00,
2013-05-30 23:08:00,55.9,50.8,30.06,NW,318,3.5,3.5,83,0.00,CLR,,0.01,0.0,WeatherDisplay:10.37,2013-05-30 22:08:00,
2013-05-30 23:13:00,55.6,50.5,30.06,North,357,5.8,5.8,83,0.00,CLR,,0.01,0.0,WeatherDisplay:10.37,2013-05-30 22:13:00,
2013-05-30 23:18:00,55.3,50.2,30.06,North,357,4.6,4.6,83,0.00,CLR,,0.01,0.0,WeatherDisplay:10.37,2013-05-30 22:18:00,
2013-05-30 23:24:00,55.0,49.9,30.06,SW,230,2.3,2.3,83,0.00,CLR,,0.01,0.0,WeatherDisplay:10.37,2013-05-30 22:24:00,
2013-05-30 23:29:00,54.7,49.6,30.06,North,354,4.6,4.6,83,0.00,CLR,,0.01,0.0,WeatherDisplay:10.37,2013-05-30 22:29:00,
2013-05-30 23:34:00,54.5,49.8,30.06,NW,309,6.9,6.9,84,0.00,CLR,,0.01,0.0,WeatherDisplay:10.37,2013-05-30 22:34:00,
2013-05-30 23:39:00,54.1,49.4,30.06,WSW,243,3.5,3.5,84,0.00,CLR,,0.01,0.0,WeatherDisplay:10.37,2013-05-30 22:39:00,
2013-05-30 23:45:00,53.8,49.1,30.07,SW,234,3.5,3.5,84,0.00,CLR,,0.01,0.0,WeatherDisplay:10.37,2013-05-30 22:45:00,
2013-05-30 23:50:00,53.5,48.8,30.07,WSW,243,1.2,0.0,84,0.00,CLR,,0.01,0.0,WeatherDisplay:10.37,2013-05-30 22:50:00,
2013-05-30 23:55:00,53.1,48.7,30.07,North,357,2.3,2.3,85,0.00,CLR,,0.01,0.0,WeatherDisplay:10.37,2013-05-30 22:55:00,